Lentia, Austria

02:20 PM CEST die 30o May, anno 2015 (GMT +0200)
Linz | | Change Station
CLOSE
Current Station
Airport
Location: Linz Airport,
Elevation: 1027 ft
Nearby Weather Stations

Elev 1027 ft 48.23 °N, 14.19 °E | Updated 30 minutes ago

Mostly Cloudy
Plerumque Nubila
70 °F
Feels Like 70 °F
N
14
Ventus Variabilis Ventus from Zephyrus

Hodie
High -- | Low -- °F
--% Chance of Precip.
Yesterday
High -- | Low -- °F
Precip. -- in
5:08 AM 8:53 PM
Waxing Gibbous, 90% visible
Pressio 29.95 in
Visibilitas 6.2 milia passuum
Clouds Few 5000 ft
Nubes Dispersae 6500 ft
Plerumque Nubila 10000 ft
Frigus in quo Ros apparet 48 °F
Umor 46%
Rainfall 0.00 in
Snow Depth Not available.
UV 5 out of 12
Pollen Not available.
Air Quality Not available.
Flu Activity Not available.
METAR LOWL 301150Z 28012KT 9999 FEW050 SCT065 BKN100 21/09 Q1014 NOSIG

More Conditions Fewer Conditions

Pressio 29.95 in
Visibilitas 6.2 milia passuum
Clouds Few 5000 ft
Nubes Dispersae 6500 ft
Plerumque Nubila 10000 ft
Frigus in quo Ros apparet 48 °F
Umor 46%
Rainfall 0.00 in
Snow Depth Not available.
UV 5 out of 12
Pollen Not available.
Air Quality Not available.
Flu Activity Not available.
METAR LOWL 301150Z 28012KT 9999 FEW050 SCT065 BKN100 21/09 Q1014 NOSIG

More Conditions Fewer Conditions

10-Day Weather Forecast

Almanac

Astronomy

May. 30, 2015 Rise Set
Actual Time
Civil Twilight
Nautical Twilight
Astronomical Twilight
Moon
Length Of Visible Light
Length of Day
Tomorrow will be .
, % of the Moon is Illuminated

Today's Extremes

Country Highs Country Lows

Community

WunderPhotos

Upload Photos

1,825,494 photos uploaded!

WunderBlogs® & News

Nearby

Air Quality

  Air Quality AQ Index Pollutant
Not available.

Snow Depth

Station Depth Elevation

Earthquake Activity

City Distance Mag. Time & Date
Minimum magnitude displayed is 2.5.

Coastal Water Temperatures

Locus Calor

Stations

Nearby Weather Stations

Station Location Temp Frigus Venti Frigus in quo Ros apparet Umor Ventus Precip. Elev Renovata Type